createdAt,value
2023-05-01T00:01:16.422Z,51.00
2023-05-01T00:03:44.567Z,51.18
2023-05-01T00:06:12.473Z,51.46
2023-05-01T00:08:39.760Z,52.04
2023-05-01T00:11:12.549Z,52.04
2023-05-01T00:13:40.998Z,52.60
2023-05-01T00:16:09.637Z,53.01
2023-05-01T00:18:37.547Z,52.87
2023-05-01T00:21:05.077Z,52.36
2023-05-01T00:23:34.374Z,52.99
2023-05-01T00:26:02.037Z,53.03
2023-05-01T00:28:29.739Z,53.24
2023-05-01T00:30:57.937Z,53.59
2023-05-01T00:33:25.244Z,53.70
2023-05-01T00:35:53.517Z,53.34
2023-05-01T00:38:21.570Z,54.04
2023-05-01T00:40:48.966Z,54.15
2023-05-01T00:43:16.387Z,53.57
2023-05-01T00:45:46.214Z,54.17
2023-05-01T00:48:14.792Z,54.05
2023-05-01T00:50:42.224Z,54.26
2023-05-01T00:53:10.734Z,54.11
2023-05-01T00:55:38.482Z,54.63
2023-05-01T00:58:06.158Z,54.47
2023-05-01T01:00:34.120Z,53.84
2023-05-01T01:03:04.912Z,54.03
2023-05-01T01:05:32.785Z,54.03
2023-05-01T01:08:11.468Z,54.46
2023-05-01T01:10:58.303Z,53.73
2023-05-01T01:13:32.947Z,53.95
2023-05-01T01:16:17.741Z,54.60
2023-05-01T01:18:48.891Z,54.54
2023-05-01T01:21:32.131Z,54.93
2023-05-01T01:24:06.219Z,54.61
2023-05-01T01:27:00.305Z,54.11
2023-05-01T01:29:48.187Z,54.64
2023-05-01T01:32:37.102Z,55.19
2023-05-01T01:35:05.285Z,56.23
2023-05-01T01:37:39.982Z,55.89
2023-05-01T01:40:09.252Z,55.76
2023-05-01T01:42:37.941Z,55.40
2023-05-01T01:45:07.113Z,55.06
2023-05-01T01:47:35.332Z,54.52
2023-05-01T01:50:04.449Z,54.85
2023-05-01T01:52:33.943Z,54.13
2023-05-01T01:55:11.683Z,53.60
2023-05-01T01:57:39.815Z,52.98
2023-05-01T02:00:11.515Z,52.12
2023-05-01T02:02:41.211Z,51.40
2023-05-01T02:05:12.081Z,50.86
2023-05-01T02:07:40.429Z,50.84
2023-05-01T02:10:09.321Z,51.22
2023-05-01T02:12:37.821Z,52.49
2023-05-01T02:15:05.571Z,53.51
2023-05-01T02:17:33.633Z,54.58
2023-05-01T02:20:02.328Z,55.16
2023-05-01T02:22:29.863Z,55.74
2023-05-01T02:24:57.593Z,55.34
2023-05-01T02:27:31.149Z,54.80
2023-05-01T02:29:59.701Z,55.17
2023-05-01T02:32:29.306Z,55.52
2023-05-01T02:34:57.747Z,56.19
2023-05-01T02:37:26.157Z,55.41
2023-05-01T02:39:54.904Z,55.68
2023-05-01T02:42:24.201Z,56.04
2023-05-01T02:44:58.644Z,56.84
2023-05-01T02:47:27.821Z,56.57
2023-05-01T02:49:56.327Z,56.82
2023-05-01T02:52:24.120Z,56.61
2023-05-01T02:54:52.365Z,55.70
2023-05-01T02:57:20.518Z,55.69
2023-05-01T02:59:47.853Z,55.56
2023-05-01T03:02:18.574Z,56.03
2023-05-01T03:04:47.117Z,56.54
2023-05-01T03:07:14.688Z,56.59
2023-05-01T03:09:42.362Z,57.52
2023-05-01T03:12:17.705Z,57.16
2023-05-01T03:14:45.179Z,57.03
2023-05-01T03:17:13.855Z,57.97
2023-05-01T03:19:44.236Z,57.46
2023-05-01T03:22:13.130Z,57.78
2023-05-01T03:24:41.365Z,57.81
2023-05-01T03:27:10.249Z,56.82
2023-05-01T03:29:41.172Z,57.32
2023-05-01T03:32:08.629Z,57.38
2023-05-01T03:34:36.604Z,57.77
2023-05-01T03:37:05.282Z,57.07
2023-05-01T03:39:33.031Z,55.06
2023-05-01T03:42:04.089Z,52.38
2023-05-01T03:44:32.710Z,51.33
2023-05-01T03:47:02.636Z,50.65
2023-05-01T03:49:32.669Z,50.02
2023-05-01T03:52:00.783Z,49.72
2023-05-01T03:54:29.856Z,49.54
2023-05-01T03:57:01.669Z,49.12
2023-05-01T03:59:29.232Z,48.94
2023-05-01T04:01:56.695Z,49.48
2023-05-01T04:04:26.843Z,49.03
2023-05-01T04:06:55.973Z,48.57
2023-05-01T04:09:23.604Z,48.56
2023-05-01T04:11:54.500Z,48.17
2023-05-01T04:14:22.244Z,47.90
2023-05-01T04:16:51.408Z,48.15
2023-05-01T04:19:21.001Z,48.04
2023-05-01T04:21:52.309Z,48.25
2023-05-01T04:24:20.900Z,47.16
2023-05-01T04:26:50.488Z,47.69
2023-05-01T04:29:20.328Z,46.91
2023-05-01T04:31:49.165Z,46.82
2023-05-01T04:34:17.424Z,45.87
2023-05-01T04:36:45.186Z,45.94
2023-05-01T04:39:13.866Z,48.34
2023-05-01T04:41:44.601Z,46.96
2023-05-01T04:44:14.777Z,47.14
2023-05-01T04:46:43.639Z,46.63
2023-05-01T04:49:11.805Z,46.26
2023-05-01T04:51:40.621Z,45.09
2023-05-01T04:54:12.400Z,45.60
2023-05-01T04:56:42.428Z,46.19
2023-05-01T04:59:11.333Z,45.63
2023-05-01T05:01:39.104Z,44.64
2023-05-01T05:04:08.834Z,45.73
2023-05-01T05:06:37.135Z,45.51
2023-05-01T05:09:06.685Z,45.05
2023-05-01T05:11:36.007Z,45.47
2023-05-01T05:14:12.261Z,45.51
2023-05-01T05:16:40.859Z,45.88
2023-05-01T05:19:12.552Z,46.69
2023-05-01T05:21:45.726Z,47.08
2023-05-01T05:24:16.539Z,46.40
2023-05-01T05:26:55.461Z,44.82
2023-05-01T05:29:23.174Z,45.99
2023-05-01T05:31:51.616Z,46.07
2023-05-01T05:34:20.161Z,46.16
2023-05-01T05:36:49.308Z,44.66
2023-05-01T05:39:22.536Z,45.18
2023-05-01T05:41:52.469Z,44.34
2023-05-01T05:44:23.476Z,44.77
2023-05-01T05:46:54.308Z,44.21
2023-05-01T05:52:06.851Z,44.97
2023-05-01T05:54:43.378Z,43.61
2023-05-01T05:57:16.164Z,42.47
2023-05-01T05:59:45.551Z,41.27
2023-05-01T06:02:20.523Z,42.49
2023-05-01T06:04:53.325Z,42.83
2023-05-01T06:07:23.059Z,42.68
2023-05-01T06:09:52.216Z,42.57
2023-05-01T06:12:25.816Z,41.75
2023-05-01T06:15:00.578Z,41.15
2023-05-01T06:17:36.446Z,41.18
2023-05-01T06:20:06.396Z,40.96
2023-05-01T06:22:35.616Z,40.46
2023-05-01T06:25:07.301Z,40.28
2023-05-01T06:30:18.333Z,38.42
2023-05-01T06:32:57.617Z,38.31
2023-05-01T06:35:50.394Z,37.86
2023-05-01T06:38:40.407Z,36.81
2023-05-01T06:41:30.992Z,37.86
2023-05-01T06:44:05.577Z,36.84
2023-05-01T06:46:34.512Z,37.12
2023-05-01T06:49:05.346Z,34.02
2023-05-01T06:51:46.194Z,34.57
2023-05-01T06:54:17.290Z,34.20
2023-05-01T06:56:57.435Z,34.19
2023-05-01T06:59:25.792Z,33.30
2023-05-01T07:01:53.719Z,33.48
2023-05-01T07:09:41.820Z,32.88
2023-05-01T07:12:11.593Z,32.79
2023-05-01T07:14:50.677Z,32.88
2023-05-01T07:17:18.741Z,32.28
2023-05-01T07:19:55.773Z,31.72
2023-05-01T07:22:26.393Z,33.75
2023-05-01T07:24:55.350Z,31.55
2023-05-01T07:27:28.615Z,31.87
2023-05-01T07:30:09.405Z,31.09
2023-05-01T07:32:54.542Z,31.93
2023-05-01T07:35:29.784Z,30.41
2023-05-01T07:38:05.358Z,29.70
2023-05-01T07:40:36.730Z,30.58
2023-05-01T07:46:00.935Z,31.17
2023-05-01T07:48:39.010Z,31.37
2023-05-01T07:51:09.397Z,30.62
2023-05-01T07:53:47.384Z,29.57
2023-05-01T07:56:33.434Z,29.16
2023-05-01T07:59:04.642Z,29.27
2023-05-01T08:01:39.363Z,30.72
2023-05-01T08:04:11.337Z,30.60
2023-05-01T08:06:42.378Z,30.63
2023-05-01T08:09:15.355Z,31.45
2023-05-01T08:11:55.270Z,30.48
2023-05-01T08:14:31.386Z,28.63
2023-05-01T08:16:59.227Z,30.11
2023-05-01T08:19:36.508Z,29.17
2023-05-01T08:22:07.589Z,28.66
2023-05-01T08:24:48.606Z,28.17
2023-05-01T08:27:25.586Z,29.06
2023-05-01T08:30:07.415Z,29.12
2023-05-01T08:32:40.098Z,28.17
2023-05-01T08:35:16.474Z,29.85
2023-05-01T08:37:58.300Z,28.70
2023-05-01T08:40:30.250Z,30.24
2023-05-01T08:43:03.920Z,29.78
2023-05-01T08:45:44.561Z,28.76
2023-05-01T08:48:18.854Z,28.79
2023-05-01T08:50:53.399Z,29.06
2023-05-01T08:53:29.352Z,28.00
2023-05-01T08:58:36.593Z,28.63
2023-05-01T09:01:06.716Z,28.17
2023-05-01T09:03:53.071Z,26.77
2023-05-01T09:06:21.342Z,27.86
2023-05-01T09:08:56.376Z,28.64
2023-05-01T09:11:32.392Z,29.29
2023-05-01T09:14:11.334Z,28.25
2023-05-01T09:16:48.623Z,27.67
2023-05-01T09:19:17.990Z,27.46
2023-05-01T09:21:53.627Z,28.33
2023-05-01T09:24:26.657Z,27.18
2023-05-01T09:27:07.804Z,27.86
2023-05-01T09:29:37.909Z,26.98
2023-05-01T09:32:16.249Z,28.75
2023-05-01T09:34:54.332Z,27.33
2023-05-01T09:37:38.361Z,26.79
2023-05-01T09:40:15.350Z,27.26
2023-05-01T09:42:52.441Z,26.54
2023-05-01T09:45:20.904Z,27.63
2023-05-01T09:47:51.553Z,28.47
2023-05-01T09:50:30.008Z,26.54
2023-05-01T09:53:06.898Z,27.25
2023-05-01T09:55:40.554Z,27.42
2023-05-01T09:58:12.468Z,26.82
2023-05-01T10:00:51.458Z,28.37
2023-05-01T10:03:23.670Z,26.74
2023-05-01T10:05:52.905Z,26.16
2023-05-01T10:08:26.301Z,25.66
2023-05-01T10:11:01.366Z,25.53
2023-05-01T10:13:44.533Z,26.30
2023-05-01T10:18:58.877Z,26.14
2023-05-01T10:21:28.096Z,25.60
2023-05-01T10:24:01.404Z,26.49
2023-05-01T10:26:35.918Z,25.18
2023-05-01T10:29:07.950Z,26.06
2023-05-01T10:31:36.742Z,26.31
2023-05-01T10:34:05.382Z,27.31
2023-05-01T10:36:47.438Z,26.63
2023-05-01T10:39:33.747Z,26.63
2023-05-01T10:42:14.206Z,26.14
2023-05-01T10:44:54.327Z,29.09
2023-05-01T10:47:31.985Z,26.15
2023-05-01T10:50:09.743Z,27.43
2023-05-01T10:53:02.351Z,26.69
2023-05-01T10:55:36.032Z,26.38
2023-05-01T10:58:07.662Z,25.33
2023-05-01T11:00:37.316Z,25.78
2023-05-01T11:03:29.322Z,25.39
2023-05-01T11:06:07.329Z,24.98
2023-05-01T11:08:37.983Z,27.37
2023-05-01T11:11:20.683Z,24.52
2023-05-01T11:13:57.796Z,24.78
2023-05-01T11:16:40.475Z,25.23
2023-05-01T11:19:12.781Z,24.57
2023-05-01T11:21:43.809Z,24.80
2023-05-01T11:24:13.882Z,26.25
2023-05-01T11:26:48.090Z,25.56
2023-05-01T11:29:24.151Z,25.62
2023-05-01T11:31:56.169Z,24.58
2023-05-01T11:34:41.668Z,23.99
2023-05-01T11:37:19.323Z,24.74
2023-05-01T11:39:52.774Z,25.74
2023-05-01T11:42:28.394Z,25.70
2023-05-01T11:45:06.956Z,27.01
2023-05-01T11:47:36.563Z,26.45
2023-05-01T11:50:11.223Z,26.07
2023-05-01T11:52:44.696Z,25.58
2023-05-01T11:55:18.068Z,26.14
2023-05-01T11:58:07.189Z,26.13
2023-05-01T12:01:00.644Z,26.15
2023-05-01T12:03:46.518Z,25.31
2023-05-01T12:06:45.003Z,26.14
2023-05-01T12:09:36.466Z,26.38
2023-05-01T12:12:19.596Z,27.67
2023-05-01T12:18:48.853Z,23.75
2023-05-01T12:24:35.441Z,25.34
2023-05-01T12:30:45.256Z,25.58
2023-05-01T12:33:42.868Z,25.64
2023-05-01T12:36:33.465Z,27.11
2023-05-01T12:39:18.660Z,25.87
2023-05-01T12:42:13.159Z,25.20
2023-05-01T12:44:59.309Z,25.13
2023-05-01T12:47:54.636Z,26.01
2023-05-01T12:50:42.447Z,24.49
2023-05-01T12:56:24.457Z,25.36
2023-05-01T12:59:03.921Z,25.36
2023-05-01T13:01:52.662Z,26.46
2023-05-01T13:04:38.769Z,25.85
2023-05-01T13:07:23.439Z,26.03
2023-05-01T13:10:10.533Z,27.72
2023-05-01T13:13:02.913Z,26.94
2023-05-01T13:15:46.719Z,25.90
2023-05-01T13:18:46.592Z,26.43
2023-05-01T13:21:27.480Z,25.00
2023-05-01T13:24:16.461Z,26.54
2023-05-01T13:35:28.199Z,25.42
2023-05-01T13:38:01.720Z,25.48
2023-05-01T13:43:39.826Z,25.03
2023-05-01T13:46:30.616Z,25.03
2023-05-01T13:49:18.258Z,24.83
2023-05-01T13:52:01.851Z,25.04
2023-05-01T14:03:11.462Z,26.21
2023-05-01T14:05:57.505Z,25.64
2023-05-01T14:08:40.328Z,25.58
2023-05-01T14:11:22.933Z,26.40
2023-05-01T14:14:08.615Z,25.14
2023-05-01T14:17:00.552Z,25.14
2023-05-01T14:19:48.546Z,25.10
2023-05-01T14:22:42.658Z,25.03
2023-05-01T14:25:33.439Z,25.89
2023-05-01T14:28:23.851Z,26.06
2023-05-01T14:31:06.624Z,25.39
2023-05-01T14:34:05.288Z,26.51
2023-05-01T14:40:42.100Z,26.32
2023-05-01T14:43:49.550Z,26.10
2023-05-01T14:46:41.677Z,26.71
2023-05-01T14:49:27.427Z,25.38
2023-05-01T14:52:12.798Z,26.28
2023-05-01T14:54:59.488Z,25.87
2023-05-01T14:57:40.761Z,26.11
2023-05-01T15:00:19.428Z,25.91
2023-05-01T15:02:51.127Z,25.88
2023-05-01T15:05:29.423Z,25.46
2023-05-01T15:08:09.454Z,25.28
2023-05-01T15:10:49.500Z,24.74
2023-05-01T15:13:18.421Z,25.99
2023-05-01T15:15:54.422Z,25.70
2023-05-01T15:18:27.467Z,25.76
2023-05-01T15:21:06.566Z,26.15
2023-05-01T15:23:45.362Z,26.32
2023-05-01T15:26:28.430Z,26.41
2023-05-01T15:28:58.030Z,26.19
2023-05-01T15:31:26.954Z,26.36
2023-05-01T15:34:06.662Z,26.60
2023-05-01T15:36:41.705Z,26.98
2023-05-01T15:39:12.083Z,26.09
2023-05-01T15:44:28.938Z,26.52
2023-05-01T15:47:00.463Z,27.05
2023-05-01T15:49:55.488Z,26.54
2023-05-01T15:52:25.901Z,26.84
2023-05-01T15:54:56.468Z,26.70
2023-05-01T15:57:35.934Z,26.63
2023-05-01T16:00:18.926Z,26.51
2023-05-01T16:02:57.848Z,28.23
2023-05-01T16:08:09.606Z,27.10
2023-05-01T16:10:37.841Z,27.25
2023-05-01T16:13:06.511Z,26.89
2023-05-01T16:15:38.386Z,27.17
2023-05-01T16:18:14.398Z,27.22
2023-05-01T16:20:43.669Z,27.49
2023-05-01T16:23:12.472Z,27.43
2023-05-01T16:25:43.404Z,27.31
2023-05-01T16:28:18.588Z,27.05
2023-05-01T16:30:53.582Z,27.50
2023-05-01T16:33:29.154Z,27.83
2023-05-01T16:36:08.514Z,28.35
2023-05-01T16:38:41.952Z,27.72
2023-05-01T16:41:17.720Z,28.22
2023-05-01T16:43:48.691Z,28.73
2023-05-01T16:46:23.982Z,28.22
2023-05-01T16:48:54.734Z,28.27
2023-05-01T16:51:32.980Z,27.95
2023-05-01T16:54:04.194Z,28.63
2023-05-01T16:56:43.946Z,28.91
2023-05-01T16:59:19.616Z,28.63
2023-05-01T17:01:55.451Z,28.56
2023-05-01T17:04:25.078Z,28.27
2023-05-01T17:06:58.993Z,27.70
2023-05-01T17:09:30.310Z,28.04
2023-05-01T17:12:11.455Z,27.81
2023-05-01T17:17:21.561Z,27.98
2023-05-01T17:20:07.022Z,27.47
2023-05-01T17:23:03.784Z,27.81
2023-05-01T17:25:44.936Z,28.45
2023-05-01T17:28:38.490Z,27.56
2023-05-01T17:31:41.193Z,27.37
2023-05-01T17:34:29.431Z,27.13
2023-05-01T17:37:24.542Z,27.37
2023-05-01T17:40:13.596Z,27.49
2023-05-01T17:45:54.605Z,28.08
2023-05-01T17:48:39.517Z,27.46
2023-05-01T17:51:37.425Z,28.68
2023-05-01T17:54:08.867Z,28.46
2023-05-01T18:00:03.699Z,28.73
2023-05-01T18:02:48.774Z,28.70
2023-05-01T18:05:32.466Z,28.24
2023-05-01T18:08:31.985Z,28.11
2023-05-01T18:11:15.992Z,27.38
2023-05-01T18:13:58.859Z,28.41
2023-05-01T18:16:54.810Z,28.44
2023-05-01T18:19:42.425Z,28.06
2023-05-01T18:22:39.481Z,29.27
2023-05-01T18:25:28.748Z,28.62
2023-05-01T18:28:16.671Z,28.32
2023-05-01T18:31:11.680Z,28.46
2023-05-01T18:33:59.490Z,29.46
2023-05-01T18:36:55.716Z,29.81
2023-05-01T18:39:52.571Z,30.37
2023-05-01T18:42:35.908Z,30.21
2023-05-01T18:45:26.746Z,30.48
2023-05-01T18:48:09.713Z,30.43
2023-05-01T18:51:07.032Z,31.64
2023-05-01T18:53:44.691Z,31.64
2023-05-01T19:02:07.544Z,32.46
2023-05-01T19:04:57.561Z,32.56
2023-05-01T19:07:44.500Z,33.52
2023-05-01T19:10:42.324Z,33.44
2023-05-01T19:13:34.552Z,34.42
2023-05-01T19:16:18.808Z,34.74
2023-05-01T19:19:02.532Z,34.79
2023-05-01T19:21:50.710Z,36.64
2023-05-01T19:24:42.532Z,36.32
2023-05-01T19:27:26.420Z,36.21
2023-05-01T19:30:18.007Z,36.99
2023-05-01T19:32:58.855Z,36.98
2023-05-01T19:35:32.797Z,37.23
2023-05-01T19:38:06.472Z,38.13
2023-05-01T19:40:45.162Z,38.10
2023-05-01T19:43:42.442Z,38.69
2023-05-01T19:46:12.842Z,38.72
2023-05-01T19:48:48.549Z,38.43
2023-05-01T19:51:25.598Z,38.88
2023-05-01T19:53:54.994Z,38.65
2023-05-01T19:56:34.537Z,39.06
2023-05-01T19:59:30.895Z,39.74
2023-05-01T20:02:01.495Z,39.06
2023-05-01T20:07:19.508Z,39.30
2023-05-01T20:09:48.113Z,39.34
2023-05-01T20:15:10.435Z,40.36
2023-05-01T20:17:39.372Z,40.55
2023-05-01T20:20:15.459Z,41.11
2023-05-01T20:22:43.550Z,41.84
2023-05-01T20:25:14.363Z,41.30
2023-05-01T20:27:46.490Z,41.13
2023-05-01T20:30:14.624Z,41.21
2023-05-01T20:32:44.415Z,40.82
2023-05-01T20:35:21.664Z,41.52
2023-05-01T20:37:52.719Z,41.17
2023-05-01T20:40:21.280Z,41.39
2023-05-01T20:42:51.513Z,41.02
2023-05-01T20:48:02.444Z,42.49
2023-05-01T20:50:32.548Z,42.00
2023-05-01T20:55:47.870Z,41.98
2023-05-01T20:58:16.774Z,41.80
2023-05-01T21:00:44.835Z,42.29
2023-05-01T21:03:15.312Z,41.89
2023-05-01T21:05:43.011Z,42.62
2023-05-01T21:08:12.633Z,41.51
2023-05-01T21:10:40.749Z,42.17
2023-05-01T21:13:12.311Z,42.96
2023-05-01T21:15:41.050Z,43.23
2023-05-01T21:18:09.114Z,43.27
2023-05-01T21:20:36.780Z,43.02
2023-05-01T21:23:06.158Z,43.10
2023-05-01T21:25:34.009Z,43.72
2023-05-01T21:28:03.381Z,43.54
2023-05-01T21:30:36.417Z,43.75
2023-05-01T21:33:07.898Z,44.09
2023-05-01T21:35:37.797Z,44.32
2023-05-01T21:38:08.344Z,44.29
2023-05-01T21:40:39.515Z,44.56
2023-05-01T21:43:14.689Z,44.69
2023-05-01T21:45:43.722Z,44.65
2023-05-01T21:48:14.294Z,44.20
2023-05-01T21:50:42.206Z,44.96
2023-05-01T21:53:10.650Z,44.99
2023-05-01T21:55:38.155Z,45.41
2023-05-01T21:58:05.589Z,45.21
2023-05-01T22:00:34.161Z,45.02
2023-05-01T22:03:02.030Z,45.16
2023-05-01T22:05:31.043Z,45.26
2023-05-01T22:07:59.411Z,45.90
2023-05-01T22:10:28.718Z,45.04
2023-05-01T22:12:56.552Z,45.43
2023-05-01T22:15:25.394Z,45.56
2023-05-01T22:17:53.606Z,45.04
2023-05-01T22:20:21.950Z,45.50
2023-05-01T22:22:50.341Z,45.39
2023-05-01T22:25:18.404Z,45.55
2023-05-01T22:27:48.494Z,45.98
2023-05-01T22:30:16.458Z,45.66
2023-05-01T22:32:44.576Z,45.34
2023-05-01T22:35:12.612Z,45.61
2023-05-01T22:37:40.164Z,46.50
2023-05-01T22:42:40.650Z,46.71
2023-05-01T22:45:09.176Z,46.73
2023-05-01T22:47:36.719Z,47.03
2023-05-01T22:50:05.186Z,46.91
2023-05-01T22:52:33.269Z,47.27
2023-05-01T22:55:00.744Z,47.36
2023-05-01T22:57:28.947Z,46.36
2023-05-01T22:59:56.766Z,47.10
2023-05-01T23:02:26.060Z,47.40
2023-05-01T23:04:54.376Z,47.56
2023-05-01T23:07:23.755Z,47.38
2023-05-01T23:09:51.304Z,47.49
2023-05-01T23:12:22.778Z,47.66
2023-05-01T23:14:51.705Z,47.69
2023-05-01T23:17:19.140Z,47.28
2023-05-01T23:19:46.713Z,46.86
2023-05-01T23:22:16.211Z,47.81
2023-05-01T23:24:44.840Z,47.71
2023-05-01T23:27:14.489Z,47.70
2023-05-01T23:29:43.945Z,47.39
2023-05-01T23:32:26.806Z,48.23
2023-05-01T23:34:56.190Z,47.21
2023-05-01T23:37:23.633Z,47.28
2023-05-01T23:39:53.639Z,47.57
2023-05-01T23:42:21.678Z,47.28
2023-05-01T23:44:51.535Z,47.59
2023-05-01T23:47:19.428Z,48.96
2023-05-01T23:49:48.091Z,48.80
2023-05-01T23:52:15.919Z,49.40
2023-05-01T23:54:43.460Z,49.39
2023-05-01T23:57:11.023Z,48.78
2023-05-01T23:59:38.996Z,49.33
